Flight Track Log - Related Links

Times and Time Zones

All times are in EDT time to prevent confusion due to time zone crossing. See the EJA929 flight status page for this flight to view local times or setup timezone preferences in your user account.

Time Position Orientation Groundspeed Altitude Reporting Facility
EDT Latitude Longitude Course Direction KTS MPH feet Rate Location/Type
Fri 04:58:00 PM 36.0767 -115.1706 270° West 190 219 3,500  Level Los Angeles Center
Fri 04:59:01 PM 36.0761 -115.2481 270° West 237 273 7,200 3,182 Climbing Los Angeles Center
Fri 04:59:06 PM 36.0758 -115.2411 93° East 215 247 7,000 4,209 Descending Los Angeles Center
Fri 05:00:08 PM 36.1208 -115.2936 317° Northwest 238 274 11,900 3,529 Climbing Los Angeles Center
Fri 05:01:22 PM 36.1839 -115.2253 41° Northeast 287 330 15,000 1,796 Climbing Los Angeles Center
Fri 05:02:25 PM 36.1975 -115.0883 83° East 361 415 16,000 1,008 Climbing Los Angeles Center
Fri 05:03:27 PM 36.1986 -114.9525 89° East 394 453 17,100 1,258 Climbing Los Angeles Center
Fri 05:04:29 PM 36.1992 -114.8097 90° East 412 474 18,600 1,403 Climbing Los Angeles Center
Fri 05:05:31 PM 36.1983 -114.6625 90° East 426 490 20,000 1,452 Climbing Los Angeles Center
Fri 05:06:33 PM 36.1953 -114.4842 91° East 432 497 21,600 1,324 Climbing Los Angeles Center
Fri 05:07:47 PM 36.2147 -114.3367 81° East 443 510 23,000 1,358 Climbing Los Angeles Center
Fri 05:08:50 PM 36.2764 -114.1689 65° Northeast 448 516 24,700 1,488 Climbing Los Angeles Center
Fri 05:09:52 PM 36.3311 -114.0272 64° Northeast 455 524 26,100 1,210 Climbing Los Angeles Center
Fri 05:10:54 PM 36.3997 -113.9306 49° Northeast 475 547 27,200 1,403 Climbing Los Angeles Center
Fri 05:11:56 PM 36.5111 -113.7933 45° Northeast 468 539 29,000 1,645 Climbing Los Angeles Center
Fri 05:12:58 PM 36.6242 -113.6539 45° Northeast 477 549 30,600 1,824 Climbing Los Angeles Center
Fri 05:14:01 PM 36.7192 -113.5356 45° Northeast 483 556 32,800 1,824 Climbing Los Angeles Center
Fri 05:15:03 PM 36.8131 -113.4183 45° Northeast 481 554 34,400 1,694 Climbing Los Angeles Center
Fri 05:16:05 PM 36.9064 -113.3008 45° Northeast 479 551 36,300 1,645 Climbing Los Angeles Center
Fri 05:17:07 PM 37.0003 -113.1833 45° Northeast 480 552 37,800 1,500 Climbing Los Angeles Center
Fri 05:18:09 PM 37.0942 -113.0664 45° Northeast 479 551 39,400 1,694 Climbing Los Angeles Center
Fri 05:19:11 PM 37.2044 -112.9250 46° Northeast 477 549 41,300 1,597 Climbing Los Angeles Center
Fri 05:20:13 PM 37.2958 -112.8081 45° Northeast 474 545 42,700 968 Climbing Los Angeles Center
Fri 05:21:15 PM 37.3686 -112.7128 46° Northeast 478 550 43,300 1,113 Climbing Los Angeles Center
Fri 05:22:17 PM 37.4769 -112.5742 45° Northeast 470 541 45,000 823 Climbing Los Angeles Center
Fri 05:23:19 PM 37.5869 -112.4331 45° Northeast 476 548 45,000  Level Los Angeles Center
Fri 05:23:54 PM 37.6436 -112.3603 45° Northeast 482 555 45,000  Level Salt Lake Center
Fri 05:24:56 PM 37.7278 -112.2186 53° Northeast 503 579 45,000  Level Salt Lake Center
Fri 05:25:58 PM 37.7986 -112.0636 60° Northeast 512 589 45,000  Level Salt Lake Center
Fri 05:26:59 PM 37.8706 -111.9072 60° Northeast 515 593 45,000  Level Salt Lake Center
Fri 05:27:39 PM 37.9139 -111.8153 59° Northeast 511 588 45,000  Level Denver Center
Fri 05:28:41 PM 37.9833 -111.6644 60° Northeast 498 573 45,000  Level Denver Center
Fri 05:30:05 PM 38.0789 -111.4553 60° Northeast 491 565 45,000  Level Salt Lake Center
Fri 05:31:07 PM 38.1606 -111.2775 60° Northeast 487 560 45,000  Level Salt Lake Center
Fri 05:32:09 PM 38.2272 -111.1267 61° Northeast 490 564 45,000  Level Salt Lake Center
Fri 05:33:11 PM 38.2942 -110.9767 60° Northeast 489 563 45,000  Level Salt Lake Center
Fri 05:34:13 PM 38.3678 -110.8133 60° Northeast 489 563 45,000  Level Salt Lake Center
Fri 05:34:53 PM 38.4089 -110.7150 62° Northeast 490 564 45,000  Level Denver Center
Fri 05:35:55 PM 38.4589 -110.5575 68° East 499 574 45,000  Level Denver Center
Fri 05:36:57 PM 38.5119 -110.3689 70° East 506 582 45,000  Level Denver Center
Fri 05:38:00 PM 38.5572 -110.2044 71° East 512 589 45,000  Level Denver Center
Fri 05:39:23 PM 38.6294 -109.9592 69° East 515 593 45,000  Level Salt Lake Center
Fri 05:40:04 PM 38.6581 -109.8475 72° East 515 593 45,000  Level Denver Center
Fri 05:41:06 PM 38.6922 -109.6472 78° East 517 595 45,000 -387 Level Denver Center
Fri 05:42:08 PM 38.7156 -109.4731 80° East 518 596 44,200 -1,258 Descending Denver Center
Fri 05:43:10 PM 38.7464 -109.2772 79° East 505 581 42,400 -1,548 Descending Denver Center
Fri 05:44:12 PM 38.7722 -109.1044 79° East 518 596 41,000 -677 Descending Denver Center
Fri 05:45:14 PM 38.8017 -108.8994 79° East 526 605 41,000  Level Denver Center
Fri 05:46:16 PM 38.8272 -108.7211 80° East 532 612 41,000  Level Denver Center
Fri 05:47:18 PM 38.8572 -108.5119 80° East 537 618 41,000  Level Denver Center
Fri 05:48:20 PM 38.8817 -108.3286 80° East 546 628 41,000  Level Denver Center
Fri 05:49:22 PM 38.9122 -108.1167 79° East 544 626 41,000  Level Denver Center
Fri 05:50:25 PM 38.9375 -107.9342 80° East 545 627 41,000 -864 Level Denver Center
Fri 05:51:27 PM 38.9669 -107.7258 80° East 536 617 39,200 -1,694 Descending Denver Center
Fri 05:52:29 PM 38.9897 -107.5447 81° East 536 617 37,500 -1,742 Descending Denver Center
Fri 05:53:31 PM 39.0172 -107.3392 80° East 524 603 35,600 -2,129 Descending Denver Center
Fri 05:54:33 PM 39.0397 -107.1642 81° East 521 600 33,100 -2,710 Descending Denver Center
Fri 05:55:35 PM 39.0650 -106.9622 81° East 515 593 30,000 -2,468 Descending Denver Center
Fri 05:56:37 PM 39.0881 -106.7800 81° East 531 611 28,000 -1,452 Descending Denver Center
Fri 05:57:39 PM 39.1156 -106.5703 80° East 534 615 27,000 -441 Descending Denver Center
Fri 05:58:53 PM 39.1394 -106.3697 81° East 512 589 27,000  Level Denver Center
Fri 05:59:55 PM 39.1617 -106.1764 82° East 494 568 27,000  Level Denver Center
Fri 06:00:57 PM 39.1800 -106.0217 81° East 483 556 27,000  Level Denver Center
Fri 06:01:59 PM 39.2064 -105.8222 80° East 474 545 27,000 -97 Level Denver Center
Fri 06:03:01 PM 39.2778 -105.6811 57° Northeast 476 548 26,800 -1,152 Descending Denver Center
Fri 06:04:04 PM 39.3453 -105.5661 53° Northeast 410 472 24,600 -1,839 Descending Denver Center
Fri 06:05:05 PM 39.4133 -105.4533 52° Northeast 386 444 23,000 -780 Descending Denver Center
Fri 06:06:07 PM 39.4800 -105.3389 53° Northeast 369 425 23,000 -581 Level Denver Center
Fri 06:07:09 PM 39.5656 -105.2683 32° Northeast 369 425 21,800 -1,548 Descending Denver Center
Fri 06:08:11 PM 39.6639 -105.2389 13° North 362 417 19,800 -1,984 Descending Denver Center
Fri 06:09:13 PM 39.7697 -105.2100 12° North 361 415 17,700 -1,854 Descending Denver Center
Fri 06:10:14 PM 39.8617 -105.1800 14° North 343 395 16,000 -1,707 Descending Denver Center
Fri 06:11:16 PM 39.9567 -105.1408 18° North 334 384 14,200 -2,129 Descending Denver Center
Fri 06:12:18 PM 40.0397 -105.1050 18° North 316 364 11,600 -2,226 Descending Denver Center
Fri 06:13:20 PM 40.1181 -105.0731 17° North 297 342 9,600 -1,258 Descending Denver Center
Fri 06:14:22 PM 40.1964 -105.0403 18° North 273 314 9,000 -677 Descending Denver Center
Fri 06:15:24 PM 40.2614 -105.0142 17° North 249 287 8,200 -968 Descending Denver Center
Fri 06:16:26 PM 40.3264 -104.9875 17° North 245 282 7,000 -871 Descending Denver Center
Fri 06:17:28 PM 40.3883 -104.9792 North 206 237 6,400 -823 Descending Denver Center
Fri 06:18:30 PM 40.4258 -105.0025 335° Northwest 152 175 5,300 -629 Descending Denver Center
Fri 06:19:32 PM 40.4586 -105.0167 342° North 141 162 5,100 -194 Descending Denver Center
Fri 06:21:00 PM 40.4518 -105.0113 143° Southeast  Level Estimated
Fri 06:28:00 PM 40.4518 -105.0113 143° Southeast  Level Estimated

Login

Don't have an account? Register now (free) for customized features, flight alerts, and more!